createdAt,value
2022-09-21T00:00:09.226Z,1020.99
2022-09-21T00:01:09.282Z,1020.99
2022-09-21T00:02:09.206Z,1020.99
2022-09-21T00:03:09.178Z,1020.99
2022-09-21T00:04:09.174Z,1020.99
2022-09-21T00:05:09.145Z,1020.99
2022-09-21T00:06:09.147Z,1021.00
2022-09-21T00:07:09.119Z,1021.00
2022-09-21T00:08:09.097Z,1021.00
2022-09-21T00:09:09.121Z,1020.99
2022-09-21T00:10:09.075Z,1020.99
2022-09-21T00:11:09.090Z,1020.99
2022-09-21T00:12:09.078Z,1020.98
2022-09-21T00:13:09.057Z,1020.98
2022-09-21T00:14:09.039Z,1020.98
2022-09-21T00:15:09.047Z,1020.98
2022-09-21T00:16:09.114Z,1020.98
2022-09-21T00:17:09.014Z,1020.99
2022-09-21T00:18:08.991Z,1020.99
2022-09-21T00:19:09.017Z,1020.99
2022-09-21T00:20:08.990Z,1020.99
2022-09-21T00:21:08.961Z,1020.98
2022-09-21T00:22:08.971Z,1020.98
2022-09-21T00:23:08.948Z,1020.98
2022-09-21T00:24:08.931Z,1020.98
2022-09-21T00:25:08.951Z,1020.98
2022-09-21T00:26:08.919Z,1020.99
2022-09-21T00:27:08.903Z,1021.00
2022-09-21T00:28:08.899Z,1021.01
2022-09-21T00:29:09.027Z,1021.03
2022-09-21T00:30:08.883Z,1021.03
2022-09-21T00:31:08.894Z,1021.04
2022-09-21T00:32:08.844Z,1021.04
2022-09-21T00:33:08.892Z,1021.04
2022-09-21T00:34:08.876Z,1021.05
2022-09-21T00:35:08.810Z,1021.07
2022-09-21T00:36:08.864Z,1021.07
2022-09-21T00:37:08.804Z,1021.08
2022-09-21T00:38:08.795Z,1021.08
2022-09-21T00:39:08.802Z,1021.08
2022-09-21T00:40:08.772Z,1021.09
2022-09-21T00:41:08.765Z,1021.09
2022-09-21T00:42:08.747Z,1021.09
2022-09-21T00:43:08.752Z,1021.10
2022-09-21T00:44:08.716Z,1021.09
2022-09-21T00:45:08.725Z,1021.09
2022-09-21T00:47:38.492Z,1021.06
2022-09-21T00:48:39.391Z,1021.05
2022-09-21T00:49:39.404Z,1021.05
2022-09-21T00:50:39.351Z,1021.06
2022-09-21T00:51:39.344Z,1021.06
2022-09-21T00:52:39.354Z,1021.06
2022-09-21T00:53:39.371Z,1021.06
2022-09-21T00:54:39.313Z,1021.07
2022-09-21T00:55:39.320Z,1021.08
2022-09-21T00:56:39.285Z,1021.08
2022-09-21T00:57:39.302Z,1021.07
2022-09-21T00:58:39.300Z,1021.08
2022-09-21T00:59:39.288Z,1021.08
2022-09-21T01:00:39.288Z,1021.09
2022-09-21T01:01:39.258Z,1021.10
2022-09-21T01:02:39.229Z,1021.10
2022-09-21T01:03:39.228Z,1021.10
2022-09-21T01:04:39.214Z,1021.11
2022-09-21T01:05:39.234Z,1021.11
2022-09-21T01:06:39.192Z,1021.11
2022-09-21T01:07:39.182Z,1021.11
2022-09-21T01:08:39.185Z,1021.12
2022-09-21T01:09:39.190Z,1021.11
2022-09-21T01:10:39.160Z,1021.12
2022-09-21T01:11:39.143Z,1021.11
2022-09-21T01:12:39.138Z,1021.12
2022-09-21T01:13:39.160Z,1021.13
2022-09-21T01:14:39.100Z,1021.14
2022-09-21T01:15:39.112Z,1021.15
2022-09-21T01:16:39.109Z,1021.15
2022-09-21T01:17:39.104Z,1021.16
2022-09-21T01:18:39.074Z,1021.16
2022-09-21T01:19:39.098Z,1021.16
2022-09-21T01:20:39.043Z,1021.16
2022-09-21T01:21:39.039Z,1021.16
2022-09-21T01:22:39.022Z,1021.16
2022-09-21T01:23:39.021Z,1021.16
2022-09-21T01:24:39.022Z,1021.16
2022-09-21T01:25:39.003Z,1021.16
2022-09-21T01:26:39.009Z,1021.16
2022-09-21T01:27:38.984Z,1021.17
2022-09-21T01:28:38.991Z,1021.17
2022-09-21T01:29:38.966Z,1021.18
2022-09-21T01:30:38.933Z,1021.18
2022-09-21T01:31:39.012Z,1021.18
2022-09-21T01:32:38.940Z,1021.17
2022-09-21T01:33:38.915Z,1021.17
2022-09-21T01:34:38.914Z,1021.17
2022-09-21T01:35:38.886Z,1021.17
2022-09-21T01:36:38.879Z,1021.18
2022-09-21T01:37:38.871Z,1021.19
2022-09-21T01:38:38.865Z,1021.19
2022-09-21T01:39:38.846Z,1021.19
2022-09-21T01:40:38.928Z,1021.19
2022-09-21T01:41:38.844Z,1021.19
2022-09-21T01:42:38.810Z,1021.19
2022-09-21T01:43:38.826Z,1021.19
2022-09-21T01:44:38.811Z,1021.20
2022-09-21T01:45:38.859Z,1021.20
2022-09-21T01:46:38.784Z,1021.19
2022-09-21T01:47:38.775Z,1021.18
2022-09-21T01:48:38.751Z,1021.17
2022-09-21T01:49:38.747Z,1021.17
2022-09-21T01:50:38.739Z,1021.16
2022-09-21T01:51:38.718Z,1021.16
2022-09-21T01:52:38.705Z,1021.16
2022-09-21T01:53:38.720Z,1021.17
2022-09-21T01:54:38.688Z,1021.17
2022-09-21T01:55:38.696Z,1021.18
2022-09-21T01:56:38.657Z,1021.19
2022-09-21T01:57:38.655Z,1021.20
2022-09-21T01:58:38.665Z,1021.20
2022-09-21T01:59:38.645Z,1021.21
2022-09-21T02:00:38.683Z,1021.21
2022-09-21T02:01:38.694Z,1021.21
2022-09-21T02:02:38.613Z,1021.21
2022-09-21T02:03:38.607Z,1021.21
2022-09-21T02:04:38.579Z,1021.21
2022-09-21T02:05:38.597Z,1021.20
2022-09-21T02:06:38.585Z,1021.19
2022-09-21T02:07:38.581Z,1021.19
2022-09-21T02:08:38.545Z,1021.19
2022-09-21T02:09:38.536Z,1021.19
2022-09-21T02:10:38.550Z,1021.19
2022-09-21T02:11:38.525Z,1021.20
2022-09-21T02:12:38.496Z,1021.20
2022-09-21T02:13:38.489Z,1021.20
2022-09-21T02:14:38.494Z,1021.21
2022-09-21T02:15:38.478Z,1021.21
2022-09-21T02:16:38.496Z,1021.20
2022-09-21T02:17:38.453Z,1021.21
2022-09-21T02:18:38.430Z,1021.21
2022-09-21T02:19:38.485Z,1021.21
2022-09-21T02:20:38.416Z,1021.22
2022-09-21T02:21:38.436Z,1021.23
2022-09-21T02:22:38.414Z,1021.23
2022-09-21T02:23:38.406Z,1021.24
2022-09-21T02:24:38.387Z,1021.24
2022-09-21T02:25:38.405Z,1021.24
2022-09-21T02:26:38.361Z,1021.24
2022-09-21T02:27:38.348Z,1021.25
2022-09-21T02:28:38.330Z,1021.24
2022-09-21T02:29:38.346Z,1021.24
2022-09-21T02:30:38.329Z,1021.24
2022-09-21T02:31:38.354Z,1021.23
2022-09-21T02:32:38.298Z,1021.23
2022-09-21T02:33:38.291Z,1021.23
2022-09-21T02:34:38.317Z,1021.22
2022-09-21T02:35:38.288Z,1021.22
2022-09-21T02:36:38.261Z,1021.23
2022-09-21T02:37:38.274Z,1021.23
2022-09-21T02:38:38.231Z,1021.24
2022-09-21T02:39:38.238Z,1021.25
2022-09-21T02:40:38.319Z,1021.27
2022-09-21T02:41:38.222Z,1021.27
2022-09-21T02:42:38.202Z,1021.27
2022-09-21T02:43:38.207Z,1021.26
2022-09-21T02:44:38.187Z,1021.25
2022-09-21T02:45:38.179Z,1021.25
2022-09-21T02:46:38.350Z,1021.24
2022-09-21T02:47:38.154Z,1021.24
2022-09-21T02:48:38.158Z,1021.24
2022-09-21T02:49:38.175Z,1021.25
2022-09-21T02:50:38.130Z,1021.25
2022-09-21T02:51:38.114Z,1021.24
2022-09-21T02:52:38.136Z,1021.24
2022-09-21T02:53:38.116Z,1021.23
2022-09-21T02:54:38.074Z,1021.22
2022-09-21T02:55:38.090Z,1021.22
2022-09-21T02:56:38.080Z,1021.22
2022-09-21T02:57:38.067Z,1021.22
2022-09-21T02:58:38.040Z,1021.22
2022-09-21T02:59:38.052Z,1021.23
2022-09-21T03:00:38.022Z,1021.22
2022-09-21T03:01:38.077Z,1021.23
2022-09-21T03:02:38.004Z,1021.23
2022-09-21T03:03:38.020Z,1021.23
2022-09-21T03:04:38.003Z,1021.24
2022-09-21T03:05:37.975Z,1021.24
2022-09-21T03:06:37.988Z,1021.24
2022-09-21T03:07:37.952Z,1021.24
2022-09-21T03:08:37.937Z,1021.24
2022-09-21T03:09:37.947Z,1021.24
2022-09-21T03:10:37.936Z,1021.24
2022-09-21T03:11:37.937Z,1021.24
2022-09-21T03:12:37.896Z,1021.23
2022-09-21T03:13:37.907Z,1021.24
2022-09-21T03:14:37.901Z,1021.24
2022-09-21T03:15:37.934Z,1021.25
2022-09-21T03:16:37.857Z,1021.26
2022-09-21T03:17:37.852Z,1021.27
2022-09-21T03:18:37.857Z,1021.28
2022-09-21T03:19:37.869Z,1021.28
2022-09-21T03:20:37.820Z,1021.29
2022-09-21T03:21:42.338Z,1021.30
2022-09-21T03:22:37.797Z,1021.30
2022-09-21T03:23:37.817Z,1021.30
2022-09-21T03:24:37.785Z,1021.31
2022-09-21T03:25:37.773Z,1021.32
2022-09-21T03:26:37.777Z,1021.33
2022-09-21T03:27:37.791Z,1021.32
2022-09-21T03:28:37.742Z,1021.33
2022-09-21T03:29:37.766Z,1021.32
2022-09-21T03:30:37.777Z,1021.32
2022-09-21T03:31:37.725Z,1021.33
2022-09-21T03:32:37.716Z,1021.34
2022-09-21T03:33:37.733Z,1021.36
2022-09-21T03:34:37.707Z,1021.36
2022-09-21T03:35:37.687Z,1021.36
2022-09-21T03:36:37.692Z,1021.36
2022-09-21T03:37:41.176Z,1021.35
2022-09-21T03:38:37.664Z,1021.35
2022-09-21T03:39:37.637Z,1021.35
2022-09-21T03:40:37.679Z,1021.35
2022-09-21T03:41:37.625Z,1021.35
2022-09-21T03:42:37.639Z,1021.35
2022-09-21T03:43:37.595Z,1021.35
2022-09-21T03:44:37.600Z,1021.35
2022-09-21T03:45:37.597Z,1021.34
2022-09-21T03:46:37.655Z,1021.34
2022-09-21T03:47:37.575Z,1021.34
2022-09-21T03:48:37.582Z,1021.34
2022-09-21T03:49:37.541Z,1021.33
2022-09-21T03:50:37.522Z,1021.33
2022-09-21T03:51:37.511Z,1021.32
2022-09-21T03:52:37.529Z,1021.31
2022-09-21T03:53:37.502Z,1021.31
2022-09-21T03:54:37.508Z,1021.31
2022-09-21T03:55:37.496Z,1021.31
2022-09-21T03:56:37.482Z,1021.31
2022-09-21T03:57:37.497Z,1021.31
2022-09-21T03:58:37.447Z,1021.31
2022-09-21T03:59:37.432Z,1021.32
2022-09-21T04:00:37.437Z,1021.32
2022-09-21T04:01:37.478Z,1021.32
2022-09-21T04:02:37.454Z,1021.32
2022-09-21T04:03:37.414Z,1021.31
2022-09-21T04:04:37.407Z,1021.31
2022-09-21T04:05:37.380Z,1021.31
2022-09-21T04:06:37.374Z,1021.31
2022-09-21T04:07:37.357Z,1021.31
2022-09-21T04:08:37.394Z,1021.32
2022-09-21T04:09:37.340Z,1021.32
2022-09-21T04:10:37.345Z,1021.32
2022-09-21T04:11:37.321Z,1021.33
2022-09-21T04:12:37.308Z,1021.33
2022-09-21T04:13:37.306Z,1021.33
2022-09-21T04:14:37.295Z,1021.33
2022-09-21T04:15:37.289Z,1021.33
2022-09-21T04:16:37.258Z,1021.33
2022-09-21T04:17:37.242Z,1021.33
2022-09-21T04:18:37.262Z,1021.33
2022-09-21T04:19:37.264Z,1021.33
2022-09-21T04:20:37.272Z,1021.33
2022-09-21T04:21:37.211Z,1021.33
2022-09-21T04:22:42.693Z,1021.32
2022-09-21T04:23:37.219Z,1021.32
2022-09-21T04:24:37.225Z,1021.32
2022-09-21T04:25:37.199Z,1021.32
2022-09-21T04:26:37.172Z,1021.32
2022-09-21T04:27:37.158Z,1021.31
2022-09-21T04:28:37.175Z,1021.31
2022-09-21T04:29:37.156Z,1021.32
2022-09-21T04:30:38.090Z,1021.32
2022-09-21T04:31:37.121Z,1021.33
2022-09-21T04:32:37.119Z,1021.33
2022-09-21T04:33:37.092Z,1021.33
2022-09-21T04:34:37.112Z,1021.34
2022-09-21T04:35:37.092Z,1021.34
2022-09-21T04:36:37.097Z,1021.34
2022-09-21T04:37:37.081Z,1021.34
2022-09-21T04:38:37.053Z,1021.33
2022-09-21T04:39:37.056Z,1021.32
2022-09-21T04:40:37.080Z,1021.32
2022-09-21T04:41:37.050Z,1021.32
2022-09-21T04:42:36.964Z,1021.31
2022-09-21T04:43:36.967Z,1021.31
2022-09-21T04:44:36.953Z,1021.31
2022-09-21T04:45:36.962Z,1021.30
2022-09-21T04:46:36.962Z,1021.31
2022-09-21T04:47:36.930Z,1021.32
2022-09-21T04:48:36.920Z,1021.32
2022-09-21T04:49:36.900Z,1021.33
2022-09-21T04:50:36.961Z,1021.34
2022-09-21T04:51:36.870Z,1021.36
2022-09-21T04:52:36.856Z,1021.38
2022-09-21T04:53:36.845Z,1021.39
2022-09-21T04:54:36.862Z,1021.41
2022-09-21T04:55:36.863Z,1021.42
2022-09-21T04:56:36.809Z,1021.43
2022-09-21T04:57:36.825Z,1021.45
2022-09-21T04:58:36.802Z,1021.46
2022-09-21T04:59:36.792Z,1021.48
2022-09-21T05:00:36.785Z,1021.49
2022-09-21T05:01:36.815Z,1021.51
2022-09-21T05:02:36.779Z,1021.51
2022-09-21T05:03:36.818Z,1021.52
2022-09-21T05:04:36.748Z,1021.53
2022-09-21T05:05:36.745Z,1021.54
2022-09-21T05:06:36.726Z,1021.56
2022-09-21T05:07:36.711Z,1021.57
2022-09-21T05:08:36.721Z,1021.58
2022-09-21T05:09:36.708Z,1021.59
2022-09-21T05:10:36.702Z,1021.59
2022-09-21T05:11:36.675Z,1021.60
2022-09-21T05:12:40.743Z,1021.61
2022-09-21T05:13:36.644Z,1021.60
2022-09-21T05:14:36.635Z,1021.60
2022-09-21T05:15:36.664Z,1021.60
2022-09-21T05:16:36.643Z,1021.60
2022-09-21T05:17:36.616Z,1021.60
2022-09-21T05:18:36.623Z,1021.60
2022-09-21T05:19:36.586Z,1021.61
2022-09-21T05:20:36.596Z,1021.61
2022-09-21T05:21:36.584Z,1021.62
2022-09-21T05:22:36.570Z,1021.62
2022-09-21T05:23:36.572Z,1021.62
2022-09-21T05:24:36.572Z,1021.62
2022-09-21T05:25:36.528Z,1021.63
2022-09-21T05:26:36.536Z,1021.64
2022-09-21T05:27:36.519Z,1021.66
2022-09-21T05:28:39.845Z,1021.67
2022-09-21T05:29:36.508Z,1021.69
2022-09-21T05:30:36.543Z,1021.70
2022-09-21T05:31:36.501Z,1021.70
2022-09-21T05:32:36.493Z,1021.71
2022-09-21T05:33:36.449Z,1021.72
2022-09-21T05:34:36.970Z,1021.72
2022-09-21T05:35:36.427Z,1021.73
2022-09-21T05:36:36.435Z,1021.74
2022-09-21T05:37:36.425Z,1021.75
2022-09-21T05:38:36.414Z,1021.77
2022-09-21T05:39:36.416Z,1021.78
2022-09-21T05:40:36.450Z,1021.79
2022-09-21T05:41:36.374Z,1021.79
2022-09-21T05:42:36.371Z,1021.79
2022-09-21T05:43:36.413Z,1021.79
2022-09-21T05:44:36.374Z,1021.79
2022-09-21T05:45:36.354Z,1021.80
2022-09-21T05:46:36.340Z,1021.81
2022-09-21T05:47:36.316Z,1021.81
2022-09-21T05:48:36.305Z,1021.82
2022-09-21T05:49:36.322Z,1021.82
2022-09-21T05:50:36.300Z,1021.83
2022-09-21T05:51:36.260Z,1021.84
2022-09-21T05:52:36.294Z,1021.84
2022-09-21T05:53:36.269Z,1021.85
2022-09-21T05:54:36.272Z,1021.86
2022-09-21T05:55:36.261Z,1021.86
2022-09-21T05:56:36.238Z,1021.87
2022-09-21T05:57:36.210Z,1021.87
2022-09-21T05:58:36.209Z,1021.88
2022-09-21T05:59:36.232Z,1021.88
2022-09-21T06:00:36.220Z,1021.89
2022-09-21T06:01:36.221Z,1021.89
2022-09-21T06:02:36.249Z,1021.90
2022-09-21T06:03:36.168Z,1021.91
2022-09-21T06:04:36.163Z,1021.92
2022-09-21T06:05:36.159Z,1021.94
2022-09-21T06:06:36.129Z,1021.95
2022-09-21T06:07:36.123Z,1021.96
2022-09-21T06:08:36.136Z,1021.96
2022-09-21T06:09:38.925Z,1021.97
2022-09-21T06:10:36.128Z,1021.98
2022-09-21T06:11:36.083Z,1022.00
2022-09-21T06:12:36.067Z,1022.00
2022-09-21T06:13:36.062Z,1022.01
2022-09-21T06:14:36.048Z,1022.02
2022-09-21T06:15:36.056Z,1022.03
2022-09-21T06:16:36.046Z,1022.04
2022-09-21T06:17:36.076Z,1022.06
2022-09-21T06:18:36.027Z,1022.08
2022-09-21T06:19:36.034Z,1022.09
2022-09-21T06:20:36.025Z,1022.10
2022-09-21T06:21:35.973Z,1022.11
2022-09-21T06:22:35.996Z,1022.11
2022-09-21T06:23:35.964Z,1022.11
2022-09-21T06:24:35.953Z,1022.11
2022-09-21T06:25:35.933Z,1022.12
2022-09-21T06:26:35.983Z,1022.12
2022-09-21T06:27:35.935Z,1022.12
2022-09-21T06:28:35.922Z,1022.13
2022-09-21T06:29:35.901Z,1022.13
2022-09-21T06:30:35.926Z,1022.12
2022-09-21T06:31:35.911Z,1022.12
2022-09-21T06:32:35.914Z,1022.12
2022-09-21T06:33:35.883Z,1022.12
2022-09-21T06:34:35.883Z,1022.13
2022-09-21T06:35:35.843Z,1022.13
2022-09-21T06:36:35.849Z,1022.13
2022-09-21T06:37:35.838Z,1022.13
2022-09-21T06:38:35.843Z,1022.13
2022-09-21T06:39:35.829Z,1022.13
2022-09-21T06:40:35.877Z,1022.13
2022-09-21T06:41:35.827Z,1022.14
2022-09-21T06:42:35.799Z,1022.14
2022-09-21T06:43:35.804Z,1022.14
2022-09-21T06:44:35.776Z,1022.14
2022-09-21T06:45:35.817Z,1022.15
2022-09-21T06:46:35.739Z,1022.15
2022-09-21T06:47:35.747Z,1022.15
2022-09-21T06:48:35.717Z,1022.15
2022-09-21T06:49:40.429Z,1022.15
2022-09-21T06:50:35.730Z,1022.16
2022-09-21T06:51:35.695Z,1022.16
2022-09-21T06:52:35.683Z,1022.17
2022-09-21T06:53:35.692Z,1022.16
2022-09-21T06:54:35.803Z,1022.15
2022-09-21T06:55:35.643Z,1022.15
2022-09-21T06:56:35.649Z,1022.14
2022-09-21T06:57:35.640Z,1022.14
2022-09-21T06:58:35.659Z,1022.14
2022-09-21T06:59:35.604Z,1022.14
2022-09-21T07:00:35.613Z,1022.13
2022-09-21T07:01:35.777Z,1022.13
2022-09-21T07:02:35.580Z,1022.14
2022-09-21T07:03:35.575Z,1022.14
2022-09-21T07:04:35.601Z,1022.15
2022-09-21T07:05:35.564Z,1022.15
2022-09-21T07:06:35.538Z,1022.16
2022-09-21T07:07:35.531Z,1022.15
2022-09-21T07:10:35.512Z,1022.13
2022-09-21T07:11:35.494Z,1022.14
2022-09-21T07:12:35.493Z,1022.14
2022-09-21T07:13:35.485Z,1022.15
2022-09-21T07:14:35.482Z,1022.15
2022-09-21T07:15:35.485Z,1022.16
2022-09-21T07:16:35.498Z,1022.17
2022-09-21T07:17:35.428Z,1022.17
2022-09-21T07:18:43.252Z,1022.17
2022-09-21T07:19:35.410Z,1022.17
2022-09-21T07:20:35.400Z,1022.17
2022-09-21T07:21:35.397Z,1022.17
2022-09-21T07:22:35.402Z,1022.17
2022-09-21T07:23:35.382Z,1022.16
2022-09-21T07:24:35.352Z,1022.16
2022-09-21T07:25:35.368Z,1022.17
2022-09-21T07:26:35.344Z,1022.16
2022-09-21T07:27:35.334Z,1022.16
2022-09-21T07:28:35.317Z,1022.17
2022-09-21T07:29:35.435Z,1022.17
2022-09-21T07:30:35.306Z,1022.17
2022-09-21T07:31:35.352Z,1022.18
2022-09-21T07:32:35.273Z,1022.18
2022-09-21T07:33:36.159Z,1022.18
2022-09-21T07:34:35.259Z,1022.18
2022-09-21T07:35:35.236Z,1022.18
2022-09-21T07:36:35.246Z,1022.17
2022-09-21T07:37:35.245Z,1022.16
2022-09-21T07:38:35.207Z,1022.16
2022-09-21T07:39:35.220Z,1022.15
2022-09-21T07:40:35.250Z,1022.14
2022-09-21T07:41:35.178Z,1022.14
2022-09-21T07:42:35.183Z,1022.14
2022-09-21T07:43:35.157Z,1022.14
2022-09-21T07:44:35.142Z,1022.14
2022-09-21T07:45:35.181Z,1022.15
2022-09-21T07:46:35.119Z,1022.14
2022-09-21T07:47:35.139Z,1022.14
2022-09-21T07:48:35.110Z,1022.14
2022-09-21T07:49:35.094Z,1022.13
2022-09-21T07:50:35.092Z,1022.14
2022-09-21T07:51:35.105Z,1022.14
2022-09-21T07:52:35.065Z,1022.14
2022-09-21T07:53:35.129Z,1022.14
2022-09-21T07:54:35.034Z,1022.14
2022-09-21T07:55:35.031Z,1022.14
2022-09-21T07:56:35.011Z,1022.14
2022-09-21T07:57:35.023Z,1022.14
2022-09-21T07:58:34.995Z,1022.15
2022-09-21T07:59:35.021Z,1022.15
2022-09-21T08:00:35.054Z,1022.15
2022-09-21T08:01:34.981Z,1022.15
2022-09-21T08:02:35.025Z,1022.15
2022-09-21T08:03:35.033Z,1022.14
2022-09-21T08:04:34.952Z,1022.14
2022-09-21T08:05:34.919Z,1022.14
2022-09-21T08:06:34.984Z,1022.15
2022-09-21T08:07:34.901Z,1022.15
2022-09-21T08:08:34.929Z,1022.15
2022-09-21T08:09:34.917Z,1022.15
2022-09-21T08:10:34.940Z,1022.14
2022-09-21T08:11:34.881Z,1022.14
2022-09-21T08:12:34.870Z,1022.14
2022-09-21T08:13:34.838Z,1022.14
2022-09-21T08:14:34.835Z,1022.15
2022-09-21T08:15:49.381Z,1022.15
2022-09-21T08:16:35.748Z,1022.15
2022-09-21T08:17:34.820Z,1022.16
2022-09-21T08:18:34.781Z,1022.15
2022-09-21T08:19:34.819Z,1022.16
2022-09-21T08:20:34.764Z,1022.15
2022-09-21T08:21:34.827Z,1022.16
2022-09-21T08:22:34.747Z,1022.16
2022-09-21T08:23:34.749Z,1022.16
2022-09-21T08:24:34.751Z,1022.17
2022-09-21T08:25:34.737Z,1022.18
2022-09-21T08:26:34.702Z,1022.18
2022-09-21T08:27:34.698Z,1022.18
2022-09-21T08:28:34.690Z,1022.18
2022-09-21T08:29:34.731Z,1022.18
2022-09-21T08:30:34.657Z,1022.18
2022-09-21T08:31:34.747Z,1022.18
2022-09-21T08:32:50.318Z,1022.19
2022-09-21T08:33:34.655Z,1022.19
2022-09-21T08:34:34.639Z,1022.20
2022-09-21T08:35:34.643Z,1022.20
2022-09-21T08:36:34.615Z,1022.21
2022-09-21T08:37:34.611Z,1022.22
2022-09-21T08:38:34.588Z,1022.22
2022-09-21T08:39:34.586Z,1022.22
2022-09-21T08:40:34.609Z,1022.21
2022-09-21T08:41:34.585Z,1022.21
2022-09-21T08:42:34.543Z,1022.20
2022-09-21T08:43:34.545Z,1022.19
2022-09-21T08:44:34.523Z,1022.19
2022-09-21T08:45:34.535Z,1022.18
2022-09-21T08:46:34.560Z,1022.18
2022-09-21T08:47:34.518Z,1022.18
2022-09-21T08:48:36.837Z,1022.17
2022-09-21T08:49:34.481Z,1022.17
2022-09-21T08:50:34.489Z,1022.17
2022-09-21T08:51:34.470Z,1022.17
2022-09-21T08:52:34.475Z,1022.16
2022-09-21T08:53:34.430Z,1022.17
2022-09-21T08:54:34.439Z,1022.17
2022-09-21T08:55:34.410Z,1022.17
2022-09-21T08:57:00.534Z,1022.16
2022-09-21T08:57:34.399Z,1022.16
2022-09-21T08:58:34.406Z,1022.17
2022-09-21T08:59:34.359Z,1022.18
2022-09-21T09:00:34.390Z,1022.18
2022-09-21T09:01:34.411Z,1022.19
2022-09-21T09:02:34.358Z,1022.19
2022-09-21T09:03:34.326Z,1022.20
2022-09-21T09:04:34.320Z,1022.20
2022-09-21T09:05:34.319Z,1022.21
2022-09-21T09:06:34.275Z,1022.21
2022-09-21T09:07:34.297Z,1022.22
2022-09-21T09:08:34.263Z,1022.22
2022-09-21T09:09:34.271Z,1022.23
2022-09-21T09:10:34.254Z,1022.24
2022-09-21T09:11:34.242Z,1022.25
2022-09-21T09:12:34.247Z,1022.26
2022-09-21T09:13:34.225Z,1022.26
2022-09-21T09:14:34.196Z,1022.28
2022-09-21T09:15:34.195Z,1022.28
2022-09-21T09:16:34.220Z,1022.28
2022-09-21T09:17:34.205Z,1022.27
2022-09-21T09:18:34.166Z,1022.28
2022-09-21T09:19:34.169Z,1022.27
2022-09-21T09:20:34.132Z,1022.27
2022-09-21T09:21:34.128Z,1022.27
2022-09-21T09:22:34.141Z,1022.26
2022-09-21T09:23:34.139Z,1022.25
2022-09-21T09:24:34.121Z,1022.25
2022-09-21T09:25:34.101Z,1022.25
2022-09-21T09:26:34.098Z,1022.24
2022-09-21T09:27:34.082Z,1022.24
2022-09-21T09:28:34.064Z,1022.24
2022-09-21T09:29:34.036Z,1022.25
2022-09-21T09:30:34.035Z,1022.26
2022-09-21T09:31:34.117Z,1022.25
2022-09-21T09:32:34.053Z,1022.26
2022-09-21T09:33:34.374Z,1022.27
2022-09-21T09:34:34.002Z,1022.26
2022-09-21T09:35:34.012Z,1022.26
2022-09-21T09:36:56.610Z,1022.27
2022-09-21T09:37:33.984Z,1022.27
2022-09-21T09:38:33.966Z,1022.28
2022-09-21T09:39:33.958Z,1022.28
2022-09-21T09:40:33.981Z,1022.27
2022-09-21T09:41:33.945Z,1022.27
2022-09-21T09:42:33.922Z,1022.25
2022-09-21T09:43:33.943Z,1022.25
2022-09-21T09:44:33.885Z,1022.25
2022-09-21T09:45:33.885Z,1022.25
2022-09-21T09:46:33.937Z,1022.26
2022-09-21T09:47:33.884Z,1022.26
2022-09-21T09:48:33.853Z,1022.24
2022-09-21T09:49:33.850Z,1022.25
2022-09-21T09:50:33.819Z,1022.24
2022-09-21T09:51:33.824Z,1022.24
2022-09-21T09:52:33.822Z,1022.25
2022-09-21T09:53:33.794Z,1022.25
2022-09-21T09:54:33.800Z,1022.25
2022-09-21T09:55:33.784Z,1022.25
2022-09-21T09:56:33.771Z,1022.25
2022-09-21T09:57:33.785Z,1022.25
2022-09-21T09:58:33.773Z,1022.25
2022-09-21T09:59:33.745Z,1022.25
2022-09-21T10:00:33.728Z,1022.24
2022-09-21T10:01:33.777Z,1022.24
2022-09-21T10:02:33.716Z,1022.23
2022-09-21T10:03:33.757Z,1022.22
2022-09-21T10:04:33.764Z,1022.22
2022-09-21T10:05:33.674Z,1022.22
2022-09-21T10:06:33.672Z,1022.22
2022-09-21T10:07:33.675Z,1022.23
2022-09-21T10:08:33.633Z,1022.22
2022-09-21T10:09:33.659Z,1022.21
2022-09-21T10:10:33.628Z,1022.21
2022-09-21T10:11:33.619Z,1022.22
2022-09-21T10:12:33.602Z,1022.21
2022-09-21T10:13:33.637Z,1022.20
2022-09-21T10:14:33.575Z,1022.20
2022-09-21T10:15:33.630Z,1022.20
2022-09-21T10:16:33.556Z,1022.20
2022-09-21T10:17:33.557Z,1022.20
2022-09-21T10:18:33.542Z,1022.19
2022-09-21T10:19:33.546Z,1022.19
2022-09-21T10:20:33.508Z,1022.18
2022-09-21T10:21:33.524Z,1022.18
2022-09-21T10:22:33.488Z,1022.18
2022-09-21T10:23:33.495Z,1022.17
2022-09-21T10:24:33.491Z,1022.17
2022-09-21T10:25:36.916Z,1022.17
2022-09-21T10:26:33.471Z,1022.16
2022-09-21T10:27:33.443Z,1022.15
2022-09-21T10:28:33.447Z,1022.14
2022-09-21T10:29:33.448Z,1022.13
2022-09-21T10:30:33.408Z,1022.12
2022-09-21T10:31:33.475Z,1022.11
2022-09-21T10:32:33.404Z,1022.10
2022-09-21T10:33:33.410Z,1022.10
2022-09-21T10:34:33.375Z,1022.10
2022-09-21T10:35:33.383Z,1022.11
2022-09-21T10:36:33.364Z,1022.13
2022-09-21T10:37:33.356Z,1022.12
2022-09-21T10:38:33.367Z,1022.12
2022-09-21T10:39:33.363Z,1022.13
2022-09-21T10:40:33.395Z,1022.13
2022-09-21T10:41:33.311Z,1022.13
2022-09-21T10:42:33.309Z,1022.12
2022-09-21T10:43:34.753Z,1022.11
2022-09-21T10:44:33.288Z,1022.11
2022-09-21T10:45:33.275Z,1022.11
2022-09-21T10:46:33.439Z,1022.10
2022-09-21T10:47:33.255Z,1022.10
2022-09-21T10:48:33.280Z,1022.09
2022-09-21T10:49:33.261Z,1022.08
2022-09-21T10:50:33.239Z,1022.08
2022-09-21T10:51:33.237Z,1022.07
2022-09-21T10:52:33.232Z,1022.07
2022-09-21T10:53:33.208Z,1022.07
2022-09-21T10:54:33.200Z,1022.08
2022-09-21T10:55:33.191Z,1022.07
2022-09-21T10:56:33.170Z,1022.06
2022-09-21T10:57:33.164Z,1022.05
2022-09-21T10:58:33.163Z,1022.04
2022-09-21T10:59:33.143Z,1022.06
2022-09-21T11:00:33.162Z,1022.03
2022-09-21T11:01:33.186Z,1022.05
2022-09-21T11:02:33.243Z,1022.05
2022-09-21T11:03:33.103Z,1022.03
2022-09-21T11:04:33.086Z,1022.03
2022-09-21T11:05:33.086Z,1022.01
2022-09-21T11:06:33.075Z,1022.01
2022-09-21T11:07:33.092Z,1022.01
2022-09-21T11:08:33.037Z,1022.01
2022-09-21T11:09:33.053Z,1022.01
2022-09-21T11:10:34.537Z,1021.99
2022-09-21T11:11:33.035Z,1022.01
2022-09-21T11:12:33.060Z,1022.00
2022-09-21T11:13:33.002Z,1022.00
2022-09-21T11:14:32.980Z,1022.00
2022-09-21T11:15:33.077Z,1022.00
2022-09-21T11:16:32.974Z,1021.99
2022-09-21T11:17:32.991Z,1021.97
2022-09-21T11:18:32.952Z,1021.96
2022-09-21T11:19:32.951Z,1021.97
2022-09-21T11:20:32.925Z,1021.96
2022-09-21T11:21:32.930Z,1021.96
2022-09-21T11:22:32.912Z,1021.96
2022-09-21T11:23:32.924Z,1021.96
2022-09-21T11:24:32.913Z,1021.97
2022-09-21T11:25:32.881Z,1021.98
2022-09-21T11:26:32.936Z,1021.99
2022-09-21T11:27:32.868Z,1021.98
2022-09-21T11:28:32.861Z,1021.99
2022-09-21T11:29:32.844Z,1021.98
2022-09-21T11:30:32.867Z,1021.98
2022-09-21T11:31:32.812Z,1021.96
2022-09-21T11:32:32.805Z,1021.96
2022-09-21T11:33:32.807Z,1021.95
2022-09-21T11:34:32.786Z,1021.94
2022-09-21T11:35:32.782Z,1021.93
2022-09-21T11:36:32.759Z,1021.92
2022-09-21T11:37:32.779Z,1021.92
2022-09-21T11:38:34.639Z,1021.91
2022-09-21T11:39:32.739Z,1021.91
2022-09-21T11:40:32.772Z,1021.90
2022-09-21T11:41:32.728Z,1021.90
2022-09-21T11:42:32.706Z,1021.89
2022-09-21T11:43:32.686Z,1021.88
2022-09-21T11:44:32.687Z,1021.88
2022-09-21T11:45:32.696Z,1021.87
2022-09-21T11:46:32.705Z,1021.87
2022-09-21T11:47:32.687Z,1021.86
2022-09-21T11:48:32.644Z,1021.86
2022-09-21T11:49:32.660Z,1021.85
2022-09-21T11:50:32.714Z,1021.85
2022-09-21T11:51:32.611Z,1021.85
2022-09-21T11:52:32.599Z,1021.85
2022-09-21T11:53:32.615Z,1021.83
2022-09-21T11:54:32.617Z,1021.83
2022-09-21T11:55:32.596Z,1021.83
2022-09-21T11:56:32.579Z,1021.82
2022-09-21T11:57:32.571Z,1021.81
2022-09-21T11:58:32.566Z,1021.80
2022-09-21T11:59:32.537Z,1021.80
2022-09-21T12:00:32.538Z,1021.80
2022-09-21T12:01:32.522Z,1021.79
2022-09-21T12:02:32.661Z,1021.78
2022-09-21T12:03:32.516Z,1021.78
2022-09-21T12:04:32.482Z,1021.78
2022-09-21T12:05:32.463Z,1021.76
2022-09-21T12:06:32.492Z,1021.75
2022-09-21T12:07:32.475Z,1021.75
2022-09-21T12:08:32.474Z,1021.74